Terminal Aerodrome Forecast
Issued by NWS

Home | Current Version | Previous Version | Text Only | Print | Product List | Glossary On
Versions: 1 2 3 4 5 6 7 8 9 10 11 12
043
FTUS45 KVEF 292320
TAFDAG
TAF
KDAG 292320Z 3000/3024 04012G20KT P6SM SKC
     FM300300 26007KT P6SM SKC
     FM301700 06006KT P6SM SKC
     FM302300 27012KT P6SM SKC=

USA.gov is the U.S. government's official web portal to all federal, state and local government web resources and services.